sensor_id;sensor_type;location;lat;lon;timestamp;P1;durP1;ratioP1;P2;durP2;ratioP2
49730;SDS011;35622;52.008;5.426;2023-11-21T00:00:15;28.55;;;14.88;;
49730;SDS011;35622;52.008;5.426;2023-11-21T00:02:41;29.27;;;14.02;;
49730;SDS011;35622;52.008;5.426;2023-11-21T00:05:08;26.45;;;12.73;;
49730;SDS011;35622;52.008;5.426;2023-11-21T00:07:35;30.10;;;13.57;;
49730;SDS011;35622;52.008;5.426;2023-11-21T00:10:01;30.98;;;13.48;;
49730;SDS011;35622;52.008;5.426;2023-11-21T00:12:27;36.28;;;14.13;;
49730;SDS011;35622;52.008;5.426;2023-11-21T00:14:54;33.90;;;15.57;;
49730;SDS011;35622;52.008;5.426;2023-11-21T00:17:20;37.97;;;14.65;;
49730;SDS011;35622;52.008;5.426;2023-11-21T00:19:45;41.83;;;15.25;;
49730;SDS011;35622;52.008;5.426;2023-11-21T00:22:11;42.88;;;14.60;;
49730;SDS011;35622;52.008;5.426;2023-11-21T00:24:36;39.05;;;14.95;;
49730;SDS011;35622;52.008;5.426;2023-11-21T00:27:02;31.83;;;14.50;;
49730;SDS011;35622;52.008;5.426;2023-11-21T00:29:28;46.33;;;14.93;;
49730;SDS011;35622;52.008;5.426;2023-11-21T00:31:54;50.75;;;14.90;;
49730;SDS011;35622;52.008;5.426;2023-11-21T00:34:19;61.55;;;15.77;;
49730;SDS011;35622;52.008;5.426;2023-11-21T00:36:45;39.42;;;16.10;;
49730;SDS011;35622;52.008;5.426;2023-11-21T00:39:11;51.53;;;15.38;;
49730;SDS011;35622;52.008;5.426;2023-11-21T00:41:36;68.18;;;15.40;;
49730;SDS011;35622;52.008;5.426;2023-11-21T00:44:02;41.88;;;13.60;;
49730;SDS011;35622;52.008;5.426;2023-11-21T00:46:28;37.35;;;13.65;;
49730;SDS011;35622;52.008;5.426;2023-11-21T00:48:54;45.75;;;14.07;;
49730;SDS011;35622;52.008;5.426;2023-11-21T00:51:20;53.22;;;13.40;;
49730;SDS011;35622;52.008;5.426;2023-11-21T00:53:47;30.13;;;12.60;;
49730;SDS011;35622;52.008;5.426;2023-11-21T00:56:13;35.17;;;12.93;;
49730;SDS011;35622;52.008;5.426;2023-11-21T00:58:39;44.20;;;13.27;;
49730;SDS011;35622;52.008;5.426;2023-11-21T01:01:10;21.75;;;11.38;;
49730;SDS011;35622;52.008;5.426;2023-11-21T01:03:36;40.38;;;11.98;;
49730;SDS011;35622;52.008;5.426;2023-11-21T01:06:02;21.70;;;11.30;;
49730;SDS011;35622;52.008;5.426;2023-11-21T01:08:28;27.45;;;12.10;;
49730;SDS011;35622;52.008;5.426;2023-11-21T01:10:53;26.00;;;11.27;;
49730;SDS011;35622;52.008;5.426;2023-11-21T01:13:19;20.02;;;11.95;;
49730;SDS011;35622;52.008;5.426;2023-11-21T01:15:46;31.00;;;12.02;;
49730;SDS011;35622;52.008;5.426;2023-11-21T01:18:11;26.52;;;11.15;;
49730;SDS011;35622;52.008;5.426;2023-11-21T01:20:37;25.75;;;10.68;;
49730;SDS011;35622;52.008;5.426;2023-11-21T01:23:02;19.73;;;10.05;;
49730;SDS011;35622;52.008;5.426;2023-11-21T01:25:28;18.35;;;10.40;;
49730;SDS011;35622;52.008;5.426;2023-11-21T01:27:53;25.13;;;10.85;;
49730;SDS011;35622;52.008;5.426;2023-11-21T01:30:19;17.63;;;10.15;;
49730;SDS011;35622;52.008;5.426;2023-11-21T01:32:44;15.55;;;10.23;;
49730;SDS011;35622;52.008;5.426;2023-11-21T01:35:10;25.33;;;11.30;;
49730;SDS011;35622;52.008;5.426;2023-11-21T01:37:37;14.50;;;10.55;;
49730;SDS011;35622;52.008;5.426;2023-11-21T01:40:03;21.15;;;10.63;;
49730;SDS011;35622;52.008;5.426;2023-11-21T01:42:33;16.63;;;9.98;;
49730;SDS011;35622;52.008;5.426;2023-11-21T01:44:59;17.88;;;10.30;;
49730;SDS011;35622;52.008;5.426;2023-11-21T01:47:27;16.75;;;10.75;;
49730;SDS011;35622;52.008;5.426;2023-11-21T01:49:52;17.92;;;9.35;;
49730;SDS011;35622;52.008;5.426;2023-11-21T01:52:18;19.60;;;10.38;;
49730;SDS011;35622;52.008;5.426;2023-11-21T01:54:44;15.48;;;9.88;;
49730;SDS011;35622;52.008;5.426;2023-11-21T01:57:10;17.35;;;9.70;;
49730;SDS011;35622;52.008;5.426;2023-11-21T01:59:36;18.48;;;9.80;;
49730;SDS011;35622;52.008;5.426;2023-11-21T02:02:06;16.25;;;10.05;;
49730;SDS011;35622;52.008;5.426;2023-11-21T02:04:32;15.40;;;10.20;;
49730;SDS011;35622;52.008;5.426;2023-11-21T02:06:58;16.35;;;10.05;;
49730;SDS011;35622;52.008;5.426;2023-11-21T02:09:30;14.48;;;9.95;;
49730;SDS011;35622;52.008;5.426;2023-11-21T02:12:00;15.55;;;8.98;;
49730;SDS011;35622;52.008;5.426;2023-11-21T02:14:26;12.75;;;10.00;;
49730;SDS011;35622;52.008;5.426;2023-11-21T02:16:53;18.17;;;10.05;;
49730;SDS011;35622;52.008;5.426;2023-11-21T02:19:19;16.20;;;9.30;;
49730;SDS011;35622;52.008;5.426;2023-11-21T02:21:51;14.00;;;10.30;;
49730;SDS011;35622;52.008;5.426;2023-11-21T02:24:18;17.55;;;10.63;;
49730;SDS011;35622;52.008;5.426;2023-11-21T02:26:47;17.70;;;10.98;;
49730;SDS011;35622;52.008;5.426;2023-11-21T02:29:16;15.45;;;10.30;;
49730;SDS011;35622;52.008;5.426;2023-11-21T02:31:43;13.88;;;10.32;;
49730;SDS011;35622;52.008;5.426;2023-11-21T02:34:16;16.20;;;11.00;;
49730;SDS011;35622;52.008;5.426;2023-11-21T02:36:43;18.23;;;10.25;;
49730;SDS011;35622;52.008;5.426;2023-11-21T02:39:10;15.95;;;10.80;;
49730;SDS011;35622;52.008;5.426;2023-11-21T02:41:38;15.40;;;11.07;;
49730;SDS011;35622;52.008;5.426;2023-11-21T02:44:05;15.98;;;10.63;;
49730;SDS011;35622;52.008;5.426;2023-11-21T02:46:31;14.88;;;10.55;;
49730;SDS011;35622;52.008;5.426;2023-11-21T02:48:59;16.73;;;11.05;;
49730;SDS011;35622;52.008;5.426;2023-11-21T02:51:35;16.55;;;10.65;;
49730;SDS011;35622;52.008;5.426;2023-11-21T02:54:01;16.10;;;11.30;;
49730;SDS011;35622;52.008;5.426;2023-11-21T02:56:30;18.30;;;11.40;;
49730;SDS011;35622;52.008;5.426;2023-11-21T02:58:56;16.13;;;10.90;;
49730;SDS011;35622;52.008;5.426;2023-11-21T03:01:22;16.70;;;10.57;;
49730;SDS011;35622;52.008;5.426;2023-11-21T03:03:49;14.88;;;10.82;;
49730;SDS011;35622;52.008;5.426;2023-11-21T03:06:16;15.23;;;10.88;;
49730;SDS011;35622;52.008;5.426;2023-11-21T03:08:42;16.13;;;10.90;;
49730;SDS011;35622;52.008;5.426;2023-11-21T03:11:08;17.27;;;11.18;;
49730;SDS011;35622;52.008;5.426;2023-11-21T03:13:33;17.77;;;11.30;;
49730;SDS011;35622;52.008;5.426;2023-11-21T03:15:59;18.55;;;11.45;;
49730;SDS011;35622;52.008;5.426;2023-11-21T03:18:24;17.50;;;11.50;;
49730;SDS011;35622;52.008;5.426;2023-11-21T03:20:51;17.88;;;11.65;;
49730;SDS011;35622;52.008;5.426;2023-11-21T03:23:18;20.25;;;11.80;;
49730;SDS011;35622;52.008;5.426;2023-11-21T03:25:43;20.08;;;12.52;;
49730;SDS011;35622;52.008;5.426;2023-11-21T03:28:09;17.90;;;11.95;;
49730;SDS011;35622;52.008;5.426;2023-11-21T03:30:35;20.25;;;12.00;;
49730;SDS011;35622;52.008;5.426;2023-11-21T03:33:00;17.58;;;11.43;;
49730;SDS011;35622;52.008;5.426;2023-11-21T03:35:26;22.00;;;12.75;;
49730;SDS011;35622;52.008;5.426;2023-11-21T03:37:52;21.90;;;12.00;;
49730;SDS011;35622;52.008;5.426;2023-11-21T03:40:18;23.60;;;12.75;;
49730;SDS011;35622;52.008;5.426;2023-11-21T03:42:43;22.10;;;12.25;;
49730;SDS011;35622;52.008;5.426;2023-11-21T03:45:09;21.23;;;12.00;;
49730;SDS011;35622;52.008;5.426;2023-11-21T03:47:36;19.15;;;11.73;;
49730;SDS011;35622;52.008;5.426;2023-11-21T03:50:02;26.23;;;12.45;;
49730;SDS011;35622;52.008;5.426;2023-11-21T03:52:28;20.92;;;13.40;;
49730;SDS011;35622;52.008;5.426;2023-11-21T03:54:54;22.58;;;12.45;;
49730;SDS011;35622;52.008;5.426;2023-11-21T03:57:20;21.65;;;12.65;;
49730;SDS011;35622;52.008;5.426;2023-11-21T03:59:46;24.83;;;13.52;;
49730;SDS011;35622;52.008;5.426;2023-11-21T04:02:11;18.13;;;11.85;;
49730;SDS011;35622;52.008;5.426;2023-11-21T04:04:37;23.55;;;13.35;;
49730;SDS011;35622;52.008;5.426;2023-11-21T04:07:03;21.98;;;12.48;;
49730;SDS011;35622;52.008;5.426;2023-11-21T04:09:29;20.20;;;12.93;;
49730;SDS011;35622;52.008;5.426;2023-11-21T04:11:54;20.35;;;13.55;;
49730;SDS011;35622;52.008;5.426;2023-11-21T04:14:20;23.88;;;14.48;;
49730;SDS011;35622;52.008;5.426;2023-11-21T04:16:47;27.23;;;13.40;;
49730;SDS011;35622;52.008;5.426;2023-11-21T04:19:13;25.38;;;13.80;;
49730;SDS011;35622;52.008;5.426;2023-11-21T04:21:42;22.92;;;14.32;;
49730;SDS011;35622;52.008;5.426;2023-11-21T04:24:08;25.58;;;14.10;;
49730;SDS011;35622;52.008;5.426;2023-11-21T04:26:34;24.52;;;14.35;;
49730;SDS011;35622;52.008;5.426;2023-11-21T04:29:00;21.75;;;13.40;;
49730;SDS011;35622;52.008;5.426;2023-11-21T04:31:25;22.08;;;13.65;;
49730;SDS011;35622;52.008;5.426;2023-11-21T04:33:51;26.08;;;13.88;;
49730;SDS011;35622;52.008;5.426;2023-11-21T04:36:16;22.98;;;13.93;;
49730;SDS011;35622;52.008;5.426;2023-11-21T04:38:42;20.25;;;13.35;;
49730;SDS011;35622;52.008;5.426;2023-11-21T04:41:07;24.75;;;13.48;;
49730;SDS011;35622;52.008;5.426;2023-11-21T04:43:33;22.88;;;13.48;;
49730;SDS011;35622;52.008;5.426;2023-11-21T04:45:59;23.63;;;13.18;;
49730;SDS011;35622;52.008;5.426;2023-11-21T04:48:25;22.50;;;13.25;;
49730;SDS011;35622;52.008;5.426;2023-11-21T04:50:50;25.02;;;14.10;;
49730;SDS011;35622;52.008;5.426;2023-11-21T04:53:16;23.15;;;13.85;;
49730;SDS011;35622;52.008;5.426;2023-11-21T04:55:42;25.02;;;13.82;;
49730;SDS011;35622;52.008;5.426;2023-11-21T04:58:08;23.02;;;13.43;;
49730;SDS011;35622;52.008;5.426;2023-11-21T05:00:34;28.33;;;13.65;;
49730;SDS011;35622;52.008;5.426;2023-11-21T05:03:01;23.17;;;13.93;;
49730;SDS011;35622;52.008;5.426;2023-11-21T05:05:27;24.50;;;13.77;;
49730;SDS011;35622;52.008;5.426;2023-11-21T05:07:54;28.27;;;14.07;;
49730;SDS011;35622;52.008;5.426;2023-11-21T05:10:20;27.63;;;13.55;;
49730;SDS011;35622;52.008;5.426;2023-11-21T05:12:47;29.70;;;13.98;;
49730;SDS011;35622;52.008;5.426;2023-11-21T05:15:15;22.63;;;13.57;;
49730;SDS011;35622;52.008;5.426;2023-11-21T05:17:42;23.77;;;12.57;;
49730;SDS011;35622;52.008;5.426;2023-11-21T05:20:09;23.83;;;13.77;;
49730;SDS011;35622;52.008;5.426;2023-11-21T05:22:36;24.02;;;14.07;;
49730;SDS011;35622;52.008;5.426;2023-11-21T05:25:02;26.52;;;14.07;;
49730;SDS011;35622;52.008;5.426;2023-11-21T05:27:29;26.67;;;13.50;;
49730;SDS011;35622;52.008;5.426;2023-11-21T05:29:55;24.75;;;13.63;;
49730;SDS011;35622;52.008;5.426;2023-11-21T05:32:21;21.17;;;13.32;;
49730;SDS011;35622;52.008;5.426;2023-11-21T05:34:48;27.83;;;13.27;;
49730;SDS011;35622;52.008;5.426;2023-11-21T05:37:14;22.80;;;12.93;;
49730;SDS011;35622;52.008;5.426;2023-11-21T05:39:39;29.88;;;13.50;;
49730;SDS011;35622;52.008;5.426;2023-11-21T05:42:05;23.73;;;13.82;;
49730;SDS011;35622;52.008;5.426;2023-11-21T05:44:31;25.77;;;13.43;;
49730;SDS011;35622;52.008;5.426;2023-11-21T05:46:57;26.25;;;13.95;;
49730;SDS011;35622;52.008;5.426;2023-11-21T05:49:23;24.27;;;13.07;;
49730;SDS011;35622;52.008;5.426;2023-11-21T05:51:51;26.67;;;13.13;;
49730;SDS011;35622;52.008;5.426;2023-11-21T05:54:19;25.60;;;13.20;;
49730;SDS011;35622;52.008;5.426;2023-11-21T05:56:44;25.10;;;13.32;;
49730;SDS011;35622;52.008;5.426;2023-11-21T05:59:10;27.27;;;13.32;;
49730;SDS011;35622;52.008;5.426;2023-11-21T06:01:35;26.35;;;13.02;;
49730;SDS011;35622;52.008;5.426;2023-11-21T06:04:03;20.95;;;12.60;;
49730;SDS011;35622;52.008;5.426;2023-11-21T06:06:29;27.48;;;13.10;;
49730;SDS011;35622;52.008;5.426;2023-11-21T06:08:56;24.48;;;13.00;;
49730;SDS011;35622;52.008;5.426;2023-11-21T06:11:22;25.13;;;13.23;;
49730;SDS011;35622;52.008;5.426;2023-11-21T06:13:47;23.02;;;12.63;;
49730;SDS011;35622;52.008;5.426;2023-11-21T06:16:14;23.65;;;12.90;;
49730;SDS011;35622;52.008;5.426;2023-11-21T06:18:42;22.77;;;13.05;;
49730;SDS011;35622;52.008;5.426;2023-11-21T06:21:11;23.85;;;13.18;;
49730;SDS011;35622;52.008;5.426;2023-11-21T06:23:37;25.73;;;13.02;;
49730;SDS011;35622;52.008;5.426;2023-11-21T06:26:03;24.30;;;12.93;;
49730;SDS011;35622;52.008;5.426;2023-11-21T06:28:29;21.35;;;12.73;;
49730;SDS011;35622;52.008;5.426;2023-11-21T06:30:55;25.40;;;12.73;;
49730;SDS011;35622;52.008;5.426;2023-11-21T06:33:22;21.65;;;12.65;;
49730;SDS011;35622;52.008;5.426;2023-11-21T06:35:48;23.13;;;13.55;;
49730;SDS011;35622;52.008;5.426;2023-11-21T06:38:14;24.00;;;13.20;;
49730;SDS011;35622;52.008;5.426;2023-11-21T06:40:40;26.50;;;13.40;;
49730;SDS011;35622;52.008;5.426;2023-11-21T06:43:06;26.40;;;13.32;;
49730;SDS011;35622;52.008;5.426;2023-11-21T06:45:32;24.45;;;13.75;;
49730;SDS011;35622;52.008;5.426;2023-11-21T06:47:59;20.23;;;13.10;;
49730;SDS011;35622;52.008;5.426;2023-11-21T06:50:24;26.63;;;13.23;;
49730;SDS011;35622;52.008;5.426;2023-11-21T06:52:50;26.95;;;12.30;;
49730;SDS011;35622;52.008;5.426;2023-11-21T06:55:16;23.33;;;13.45;;
49730;SDS011;35622;52.008;5.426;2023-11-21T06:57:42;26.45;;;12.57;;
49730;SDS011;35622;52.008;5.426;2023-11-21T07:00:08;26.50;;;12.88;;
49730;SDS011;35622;52.008;5.426;2023-11-21T07:02:34;25.33;;;13.38;;
49730;SDS011;35622;52.008;5.426;2023-11-21T07:05:00;26.95;;;12.73;;
49730;SDS011;35622;52.008;5.426;2023-11-21T07:07:26;27.38;;;13.25;;
49730;SDS011;35622;52.008;5.426;2023-11-21T07:09:52;26.20;;;12.60;;
49730;SDS011;35622;52.008;5.426;2023-11-21T07:12:18;24.15;;;12.57;;
49730;SDS011;35622;52.008;5.426;2023-11-21T07:14:44;25.67;;;12.25;;
49730;SDS011;35622;52.008;5.426;2023-11-21T07:17:10;24.75;;;12.55;;
49730;SDS011;35622;52.008;5.426;2023-11-21T07:19:37;23.42;;;13.05;;
49730;SDS011;35622;52.008;5.426;2023-11-21T07:22:03;30.63;;;13.07;;
49730;SDS011;35622;52.008;5.426;2023-11-21T07:24:30;27.63;;;13.52;;
49730;SDS011;35622;52.008;5.426;2023-11-21T07:26:56;34.10;;;12.90;;
49730;SDS011;35622;52.008;5.426;2023-11-21T07:29:23;34.80;;;12.90;;
49730;SDS011;35622;52.008;5.426;2023-11-21T07:31:51;40.88;;;13.77;;
49730;SDS011;35622;52.008;5.426;2023-11-21T07:34:17;25.33;;;13.95;;
49730;SDS011;35622;52.008;5.426;2023-11-21T07:36:43;30.23;;;12.73;;
49730;SDS011;35622;52.008;5.426;2023-11-21T07:39:09;30.10;;;13.35;;
49730;SDS011;35622;52.008;5.426;2023-11-21T07:41:35;29.30;;;12.75;;
49730;SDS011;35622;52.008;5.426;2023-11-21T07:44:03;28.70;;;13.23;;
49730;SDS011;35622;52.008;5.426;2023-11-21T07:46:28;26.00;;;12.27;;
49730;SDS011;35622;52.008;5.426;2023-11-21T07:48:54;25.77;;;12.88;;
49730;SDS011;35622;52.008;5.426;2023-11-21T07:51:20;27.63;;;14.05;;
49730;SDS011;35622;52.008;5.426;2023-11-21T07:53:45;31.52;;;14.15;;
49730;SDS011;35622;52.008;5.426;2023-11-21T07:56:11;25.50;;;13.30;;
49730;SDS011;35622;52.008;5.426;2023-11-21T07:58:37;27.08;;;12.98;;
49730;SDS011;35622;52.008;5.426;2023-11-21T08:01:03;23.80;;;12.27;;
49730;SDS011;35622;52.008;5.426;2023-11-21T08:03:29;24.80;;;12.30;;
49730;SDS011;35622;52.008;5.426;2023-11-21T08:05:59;25.33;;;12.85;;
49730;SDS011;35622;52.008;5.426;2023-11-21T08:08:25;29.13;;;12.32;;
49730;SDS011;35622;52.008;5.426;2023-11-21T08:10:53;25.75;;;12.88;;
49730;SDS011;35622;52.008;5.426;2023-11-21T08:13:22;25.45;;;12.98;;
49730;SDS011;35622;52.008;5.426;2023-11-21T08:15:55;27.02;;;12.88;;
49730;SDS011;35622;52.008;5.426;2023-11-21T08:18:21;24.23;;;12.43;;
49730;SDS011;35622;52.008;5.426;2023-11-21T08:20:47;21.73;;;12.48;;
49730;SDS011;35622;52.008;5.426;2023-11-21T08:23:16;27.67;;;13.52;;
49730;SDS011;35622;52.008;5.426;2023-11-21T08:25:43;27.88;;;12.95;;
49730;SDS011;35622;52.008;5.426;2023-11-21T08:28:09;25.80;;;12.80;;
49730;SDS011;35622;52.008;5.426;2023-11-21T08:30:35;23.52;;;12.77;;
49730;SDS011;35622;52.008;5.426;2023-11-21T08:33:00;24.02;;;12.38;;
49730;SDS011;35622;52.008;5.426;2023-11-21T08:35:28;25.02;;;11.82;;
49730;SDS011;35622;52.008;5.426;2023-11-21T08:37:53;25.85;;;12.73;;
49730;SDS011;35622;52.008;5.426;2023-11-21T08:40:20;24.27;;;10.80;;
49730;SDS011;35622;52.008;5.426;2023-11-21T08:42:46;25.67;;;12.35;;
49730;SDS011;35622;52.008;5.426;2023-11-21T08:45:13;26.33;;;12.27;;
49730;SDS011;35622;52.008;5.426;2023-11-21T08:47:39;27.42;;;10.88;;
49730;SDS011;35622;52.008;5.426;2023-11-21T08:50:06;24.13;;;10.70;;
49730;SDS011;35622;52.008;5.426;2023-11-21T08:52:33;26.88;;;11.60;;
49730;SDS011;35622;52.008;5.426;2023-11-21T08:54:59;22.63;;;11.02;;
49730;SDS011;35622;52.008;5.426;2023-11-21T08:57:28;20.38;;;10.60;;
49730;SDS011;35622;52.008;5.426;2023-11-21T08:59:54;24.35;;;10.63;;
49730;SDS011;35622;52.008;5.426;2023-11-21T09:02:23;27.58;;;10.90;;
49730;SDS011;35622;52.008;5.426;2023-11-21T09:04:51;22.10;;;10.35;;
49730;SDS011;35622;52.008;5.426;2023-11-21T09:07:17;28.10;;;10.60;;
49730;SDS011;35622;52.008;5.426;2023-11-21T09:09:46;21.98;;;9.82;;
49730;SDS011;35622;52.008;5.426;2023-11-21T09:12:12;17.42;;;8.65;;
49730;SDS011;35622;52.008;5.426;2023-11-21T09:14:38;18.25;;;8.80;;
49730;SDS011;35622;52.008;5.426;2023-11-21T09:17:04;21.58;;;9.40;;
49730;SDS011;35622;52.008;5.426;2023-11-21T09:19:36;18.67;;;9.52;;
49730;SDS011;35622;52.008;5.426;2023-11-21T09:22:02;15.93;;;7.75;;
49730;SDS011;35622;52.008;5.426;2023-11-21T09:24:28;18.27;;;8.57;;
49730;SDS011;35622;52.008;5.426;2023-11-21T09:26:53;16.08;;;7.38;;
49730;SDS011;35622;52.008;5.426;2023-11-21T09:29:19;19.88;;;8.38;;
49730;SDS011;35622;52.008;5.426;2023-11-21T09:31:44;18.55;;;8.73;;
49730;SDS011;35622;52.008;5.426;2023-11-21T09:34:10;18.98;;;8.85;;
49730;SDS011;35622;52.008;5.426;2023-11-21T09:36:36;15.27;;;8.35;;
49730;SDS011;35622;52.008;5.426;2023-11-21T09:39:04;17.63;;;9.23;;
49730;SDS011;35622;52.008;5.426;2023-11-21T09:41:56;15.90;;;8.57;;
49730;SDS011;35622;52.008;5.426;2023-11-21T09:44:32;15.93;;;9.20;;
49730;SDS011;35622;52.008;5.426;2023-11-21T09:47:00;16.20;;;9.45;;
49730;SDS011;35622;52.008;5.426;2023-11-21T09:49:27;17.00;;;9.13;;
49730;SDS011;35622;52.008;5.426;2023-11-21T09:51:55;17.75;;;9.43;;
49730;SDS011;35622;52.008;5.426;2023-11-21T09:54:23;17.75;;;10.07;;
49730;SDS011;35622;52.008;5.426;2023-11-21T09:56:50;18.65;;;9.80;;
49730;SDS011;35622;52.008;5.426;2023-11-21T09:59:15;20.52;;;11.15;;
49730;SDS011;35622;52.008;5.426;2023-11-21T10:01:42;20.17;;;11.23;;
49730;SDS011;35622;52.008;5.426;2023-11-21T10:04:08;17.15;;;10.27;;
49730;SDS011;35622;52.008;5.426;2023-11-21T10:06:38;18.42;;;10.20;;
49730;SDS011;35622;52.008;5.426;2023-11-21T10:09:06;17.80;;;10.93;;
49730;SDS011;35622;52.008;5.426;2023-11-21T10:11:42;21.38;;;11.48;;
49730;SDS011;35622;52.008;5.426;2023-11-21T10:14:12;18.70;;;10.70;;
49730;SDS011;35622;52.008;5.426;2023-11-21T10:16:39;21.45;;;12.57;;
49730;SDS011;35622;52.008;5.426;2023-11-21T10:19:05;22.58;;;12.32;;
49730;SDS011;35622;52.008;5.426;2023-11-21T10:21:34;23.13;;;12.95;;
49730;SDS011;35622;52.008;5.426;2023-11-21T10:24:00;22.92;;;12.77;;
49730;SDS011;35622;52.008;5.426;2023-11-21T10:26:26;21.42;;;12.35;;
49730;SDS011;35622;52.008;5.426;2023-11-21T10:28:59;21.30;;;12.00;;
49730;SDS011;35622;52.008;5.426;2023-11-21T10:31:32;19.35;;;11.80;;
49730;SDS011;35622;52.008;5.426;2023-11-21T10:34:12;20.88;;;11.43;;
49730;SDS011;35622;52.008;5.426;2023-11-21T10:36:43;21.90;;;11.45;;
49730;SDS011;35622;52.008;5.426;2023-11-21T10:39:09;21.38;;;11.23;;
49730;SDS011;35622;52.008;5.426;2023-11-21T10:41:38;17.83;;;10.63;;
49730;SDS011;35622;52.008;5.426;2023-11-21T10:44:04;18.33;;;10.95;;
49730;SDS011;35622;52.008;5.426;2023-11-21T10:46:32;17.02;;;10.30;;
49730;SDS011;35622;52.008;5.426;2023-11-21T10:48:59;16.60;;;10.77;;
49730;SDS011;35622;52.008;5.426;2023-11-21T10:51:25;19.75;;;10.70;;
49730;SDS011;35622;52.008;5.426;2023-11-21T10:53:54;17.25;;;10.52;;
49730;SDS011;35622;52.008;5.426;2023-11-21T10:56:19;18.63;;;10.80;;
49730;SDS011;35622;52.008;5.426;2023-11-21T10:58:49;18.23;;;10.45;;
49730;SDS011;35622;52.008;5.426;2023-11-21T11:01:17;19.30;;;10.20;;
49730;SDS011;35622;52.008;5.426;2023-11-21T11:03:46;20.38;;;11.32;;
49730;SDS011;35622;52.008;5.426;2023-11-21T11:06:12;20.75;;;11.43;;
49730;SDS011;35622;52.008;5.426;2023-11-21T11:08:40;20.92;;;11.85;;
49730;SDS011;35622;52.008;5.426;2023-11-21T11:11:06;20.02;;;11.23;;
49730;SDS011;35622;52.008;5.426;2023-11-21T11:13:32;18.95;;;11.18;;
49730;SDS011;35622;52.008;5.426;2023-11-21T11:15:58;16.42;;;10.10;;
49730;SDS011;35622;52.008;5.426;2023-11-21T11:18:26;17.77;;;10.93;;
49730;SDS011;35622;52.008;5.426;2023-11-21T11:20:53;18.15;;;10.55;;
49730;SDS011;35622;52.008;5.426;2023-11-21T11:33:44;16.13;;;8.93;;
49730;SDS011;35622;52.008;5.426;2023-11-21T11:39:26;16.98;;;9.55;;
49730;SDS011;35622;52.008;5.426;2023-11-21T11:42:05;21.25;;;10.05;;
49730;SDS011;35622;52.008;5.426;2023-11-21T11:47:18;20.70;;;11.15;;
49730;SDS011;35622;52.008;5.426;2023-11-21T11:50:03;19.52;;;9.90;;
49730;SDS011;35622;52.008;5.426;2023-11-21T11:54:59;21.15;;;11.10;;
49730;SDS011;35622;52.008;5.426;2023-11-21T11:57:25;19.13;;;10.20;;
49730;SDS011;35622;52.008;5.426;2023-11-21T12:00:10;22.02;;;11.68;;
49730;SDS011;35622;52.008;5.426;2023-11-21T12:02:38;23.10;;;11.63;;
49730;SDS011;35622;52.008;5.426;2023-11-21T12:05:14;21.73;;;11.43;;
49730;SDS011;35622;52.008;5.426;2023-11-21T12:10:19;23.30;;;11.32;;
49730;SDS011;35622;52.008;5.426;2023-11-21T12:12:48;21.02;;;11.13;;
49730;SDS011;35622;52.008;5.426;2023-11-21T12:15:14;19.90;;;11.05;;
49730;SDS011;35622;52.008;5.426;2023-11-21T12:17:41;23.33;;;12.27;;
49730;SDS011;35622;52.008;5.426;2023-11-21T12:20:08;20.65;;;10.73;;
49730;SDS011;35622;52.008;5.426;2023-11-21T12:22:58;23.65;;;12.25;;
49730;SDS011;35622;52.008;5.426;2023-11-21T12:25:25;24.02;;;11.90;;
49730;SDS011;35622;52.008;5.426;2023-11-21T12:27:57;25.65;;;12.88;;
49730;SDS011;35622;52.008;5.426;2023-11-21T12:30:25;23.33;;;12.60;;
49730;SDS011;35622;52.008;5.426;2023-11-21T12:33:00;24.88;;;13.15;;
49730;SDS011;35622;52.008;5.426;2023-11-21T12:35:26;23.52;;;12.70;;
49730;SDS011;35622;52.008;5.426;2023-11-21T12:37:54;23.38;;;12.70;;
49730;SDS011;35622;52.008;5.426;2023-11-21T12:40:22;25.70;;;13.57;;
49730;SDS011;35622;52.008;5.426;2023-11-21T12:42:48;23.90;;;13.55;;
49730;SDS011;35622;52.008;5.426;2023-11-21T12:48:01;24.95;;;13.23;;
49730;SDS011;35622;52.008;5.426;2023-11-21T12:50:32;26.10;;;12.52;;
49730;SDS011;35622;52.008;5.426;2023-11-21T12:53:02;24.70;;;13.38;;
49730;SDS011;35622;52.008;5.426;2023-11-21T12:55:38;23.02;;;12.95;;
49730;SDS011;35622;52.008;5.426;2023-11-21T12:58:04;23.30;;;12.57;;
49730;SDS011;35622;52.008;5.426;2023-11-21T13:00:38;21.88;;;12.90;;
49730;SDS011;35622;52.008;5.426;2023-11-21T13:03:13;23.23;;;12.38;;
49730;SDS011;35622;52.008;5.426;2023-11-21T13:05:50;24.50;;;12.48;;
49730;SDS011;35622;52.008;5.426;2023-11-21T13:08:18;22.35;;;12.73;;
49730;SDS011;35622;52.008;5.426;2023-11-21T13:10:48;22.70;;;12.15;;
49730;SDS011;35622;52.008;5.426;2023-11-21T13:13:15;24.50;;;12.70;;
49730;SDS011;35622;52.008;5.426;2023-11-21T13:15:50;22.63;;;13.10;;
49730;SDS011;35622;52.008;5.426;2023-11-21T13:18:17;23.10;;;11.63;;
49730;SDS011;35622;52.008;5.426;2023-11-21T13:20:43;20.60;;;12.15;;
49730;SDS011;35622;52.008;5.426;2023-11-21T13:23:09;21.15;;;12.25;;
49730;SDS011;35622;52.008;5.426;2023-11-21T13:25:38;23.50;;;11.77;;
49730;SDS011;35622;52.008;5.426;2023-11-21T13:28:06;21.35;;;12.20;;
49730;SDS011;35622;52.008;5.426;2023-11-21T13:30:32;20.42;;;12.05;;
49730;SDS011;35622;52.008;5.426;2023-11-21T13:33:01;20.00;;;10.80;;
49730;SDS011;35622;52.008;5.426;2023-11-21T13:35:29;19.10;;;11.27;;
49730;SDS011;35622;52.008;5.426;2023-11-21T13:38:09;18.05;;;10.90;;
49730;SDS011;35622;52.008;5.426;2023-11-21T13:40:37;18.27;;;10.77;;
49730;SDS011;35622;52.008;5.426;2023-11-21T13:43:12;18.13;;;10.70;;
49730;SDS011;35622;52.008;5.426;2023-11-21T13:45:39;16.10;;;9.68;;
49730;SDS011;35622;52.008;5.426;2023-11-21T13:48:05;17.92;;;10.32;;
49730;SDS011;35622;52.008;5.426;2023-11-21T13:50:35;16.38;;;9.60;;
49730;SDS011;35622;52.008;5.426;2023-11-21T13:53:01;17.92;;;10.38;;
49730;SDS011;35622;52.008;5.426;2023-11-21T13:55:46;15.88;;;9.13;;
49730;SDS011;35622;52.008;5.426;2023-11-21T13:58:14;17.08;;;9.30;;
49730;SDS011;35622;52.008;5.426;2023-11-21T14:00:44;16.20;;;9.13;;
49730;SDS011;35622;52.008;5.426;2023-11-21T14:03:14;15.45;;;9.20;;
49730;SDS011;35622;52.008;5.426;2023-11-21T14:05:46;17.02;;;8.60;;
49730;SDS011;35622;52.008;5.426;2023-11-21T14:08:19;12.63;;;7.03;;
49730;SDS011;35622;52.008;5.426;2023-11-21T14:10:53;10.30;;;6.22;;
49730;SDS011;35622;52.008;5.426;2023-11-21T14:13:26;10.32;;;5.60;;
49730;SDS011;35622;52.008;5.426;2023-11-21T14:15:52;9.70;;;4.93;;
49730;SDS011;35622;52.008;5.426;2023-11-21T14:18:24;9.02;;;4.60;;
49730;SDS011;35622;52.008;5.426;2023-11-21T14:20:59;11.65;;;4.82;;
49730;SDS011;35622;52.008;5.426;2023-11-21T14:23:24;8.57;;;4.88;;
49730;SDS011;35622;52.008;5.426;2023-11-21T14:25:50;11.02;;;6.15;;
49730;SDS011;35622;52.008;5.426;2023-11-21T14:28:16;12.77;;;6.15;;
49730;SDS011;35622;52.008;5.426;2023-11-21T14:30:43;12.63;;;6.18;;
49730;SDS011;35622;52.008;5.426;2023-11-21T14:33:11;14.07;;;7.05;;
49730;SDS011;35622;52.008;5.426;2023-11-21T14:35:37;14.88;;;8.15;;
49730;SDS011;35622;52.008;5.426;2023-11-21T14:38:02;16.17;;;8.02;;
49730;SDS011;35622;52.008;5.426;2023-11-21T14:40:30;18.73;;;9.80;;
49730;SDS011;35622;52.008;5.426;2023-11-21T14:42:59;20.13;;;9.30;;
49730;SDS011;35622;52.008;5.426;2023-11-21T14:45:25;21.08;;;10.18;;
49730;SDS011;35622;52.008;5.426;2023-11-21T14:47:51;21.88;;;10.88;;